Terminal Aerodrome Forecast
Issued by NWS

Home | Current Version | Previous Version | Text Only | Print | Product List | Glossary On
Versions: 1 2 3 4 5 6 7 8 9 10 11 12 13
242
FTAK31 PAJN 061143
TAFAKT
TAF
PAKT 061143Z 0612/0712 16007KT P6SM OVC090
     FM061500 14010G20KT P6SM -RA SCT025 OVC050
     FM062200 14014G28KT 5SM -RA BR SCT015 OVC025 WS020/20035KT
      TEMPO 0622/0702 2SM RA BR BKN015
     FM070500 14012G19KT 5SM -RA BR SCT025 OVC035
      AMD LTD TO CLD VIS AND WIND 0612/0615=

USA.gov is the U.S. government's official web portal to all federal, state and local government web resources and services.